sensor_id;sensor_type;location;lat;lon;timestamp;P1;durP1;ratioP1;P2;durP2;ratioP2
45476;SDS011;31958;51.756;-2.556;2024-03-17T00:01:31;4.00;;;1.60;;
45476;SDS011;31958;51.756;-2.556;2024-03-17T00:03:57;2.80;;;1.23;;
45476;SDS011;31958;51.756;-2.556;2024-03-17T00:06:23;3.88;;;1.58;;
45476;SDS011;31958;51.756;-2.556;2024-03-17T00:08:48;2.88;;;1.50;;
45476;SDS011;31958;51.756;-2.556;2024-03-17T00:11:15;1.90;;;0.98;;
45476;SDS011;31958;51.756;-2.556;2024-03-17T00:13:40;2.67;;;1.38;;
45476;SDS011;31958;51.756;-2.556;2024-03-17T00:16:06;3.25;;;1.30;;
45476;SDS011;31958;51.756;-2.556;2024-03-17T00:18:32;2.88;;;1.20;;
45476;SDS011;31958;51.756;-2.556;2024-03-17T00:20:57;2.50;;;1.15;;
45476;SDS011;31958;51.756;-2.556;2024-03-17T00:23:24;2.65;;;1.23;;
45476;SDS011;31958;51.756;-2.556;2024-03-17T00:25:49;3.28;;;1.17;;
45476;SDS011;31958;51.756;-2.556;2024-03-17T00:28:15;3.97;;;1.40;;
45476;SDS011;31958;51.756;-2.556;2024-03-17T00:30:41;2.58;;;1.00;;
45476;SDS011;31958;51.756;-2.556;2024-03-17T00:33:06;3.13;;;1.40;;
45476;SDS011;31958;51.756;-2.556;2024-03-17T00:35:32;2.58;;;1.30;;
45476;SDS011;31958;51.756;-2.556;2024-03-17T00:37:58;2.80;;;1.20;;
45476;SDS011;31958;51.756;-2.556;2024-03-17T00:40:23;2.20;;;1.08;;
45476;SDS011;31958;51.756;-2.556;2024-03-17T00:42:49;2.47;;;1.27;;
45476;SDS011;31958;51.756;-2.556;2024-03-17T00:45:14;2.65;;;1.02;;
45476;SDS011;31958;51.756;-2.556;2024-03-17T00:47:40;3.58;;;1.50;;
45476;SDS011;31958;51.756;-2.556;2024-03-17T00:50:05;2.90;;;1.10;;
45476;SDS011;31958;51.756;-2.556;2024-03-17T00:52:36;3.97;;;1.10;;
45476;SDS011;31958;51.756;-2.556;2024-03-17T00:55:01;2.45;;;1.00;;
45476;SDS011;31958;51.756;-2.556;2024-03-17T00:57:27;1.90;;;1.05;;
45476;SDS011;31958;51.756;-2.556;2024-03-17T00:59:53;2.67;;;1.00;;
45476;SDS011;31958;51.756;-2.556;2024-03-17T01:02:18;2.97;;;1.00;;
45476;SDS011;31958;51.756;-2.556;2024-03-17T01:04:44;2.75;;;1.23;;
45476;SDS011;31958;51.756;-2.556;2024-03-17T01:07:10;2.45;;;1.10;;
45476;SDS011;31958;51.756;-2.556;2024-03-17T01:09:36;2.25;;;1.00;;
45476;SDS011;31958;51.756;-2.556;2024-03-17T01:12:01;2.72;;;1.00;;
45476;SDS011;31958;51.756;-2.556;2024-03-17T01:14:27;4.15;;;1.30;;
45476;SDS011;31958;51.756;-2.556;2024-03-17T01:16:53;3.00;;;1.00;;
45476;SDS011;31958;51.756;-2.556;2024-03-17T01:19:19;2.10;;;0.90;;
45476;SDS011;31958;51.756;-2.556;2024-03-17T01:21:44;1.55;;;0.90;;
45476;SDS011;31958;51.756;-2.556;2024-03-17T01:24:09;2.55;;;0.80;;
45476;SDS011;31958;51.756;-2.556;2024-03-17T01:26:35;2.78;;;1.00;;
45476;SDS011;31958;51.756;-2.556;2024-03-17T01:29:00;2.53;;;1.00;;
45476;SDS011;31958;51.756;-2.556;2024-03-17T01:31:26;2.42;;;1.00;;
45476;SDS011;31958;51.756;-2.556;2024-03-17T01:33:52;1.95;;;0.90;;
45476;SDS011;31958;51.756;-2.556;2024-03-17T01:36:17;2.05;;;0.88;;
45476;SDS011;31958;51.756;-2.556;2024-03-17T01:38:42;1.50;;;0.80;;
45476;SDS011;31958;51.756;-2.556;2024-03-17T01:41:08;1.35;;;0.70;;
45476;SDS011;31958;51.756;-2.556;2024-03-17T01:43:33;1.83;;;0.90;;
45476;SDS011;31958;51.756;-2.556;2024-03-17T01:45:58;2.95;;;0.98;;
45476;SDS011;31958;51.756;-2.556;2024-03-17T01:48:24;3.65;;;1.00;;
45476;SDS011;31958;51.756;-2.556;2024-03-17T01:50:51;2.10;;;0.90;;
45476;SDS011;31958;51.756;-2.556;2024-03-17T01:53:17;2.05;;;0.82;;
45476;SDS011;31958;51.756;-2.556;2024-03-17T01:55:43;1.60;;;0.80;;
45476;SDS011;31958;51.756;-2.556;2024-03-17T01:58:09;1.75;;;0.90;;
45476;SDS011;31958;51.756;-2.556;2024-03-17T02:00:38;1.63;;;0.80;;
45476;SDS011;31958;51.756;-2.556;2024-03-17T02:03:04;1.10;;;0.70;;
45476;SDS011;31958;51.756;-2.556;2024-03-17T02:05:31;2.20;;;0.90;;
45476;SDS011;31958;51.756;-2.556;2024-03-17T02:07:56;1.48;;;0.70;;
45476;SDS011;31958;51.756;-2.556;2024-03-17T02:10:21;2.28;;;0.90;;
45476;SDS011;31958;51.756;-2.556;2024-03-17T02:12:47;1.35;;;0.70;;
45476;SDS011;31958;51.756;-2.556;2024-03-17T02:15:13;2.20;;;0.90;;
45476;SDS011;31958;51.756;-2.556;2024-03-17T02:17:39;1.58;;;0.70;;
45476;SDS011;31958;51.756;-2.556;2024-03-17T02:20:04;1.75;;;0.80;;
45476;SDS011;31958;51.756;-2.556;2024-03-17T02:22:32;1.20;;;0.60;;
45476;SDS011;31958;51.756;-2.556;2024-03-17T02:24:59;2.25;;;0.80;;
45476;SDS011;31958;51.756;-2.556;2024-03-17T02:27:25;3.00;;;0.70;;
45476;SDS011;31958;51.756;-2.556;2024-03-17T02:29:50;2.08;;;0.70;;
45476;SDS011;31958;51.756;-2.556;2024-03-17T02:32:15;0.88;;;0.52;;
45476;SDS011;31958;51.756;-2.556;2024-03-17T02:34:42;1.65;;;0.70;;
45476;SDS011;31958;51.756;-2.556;2024-03-17T02:37:09;1.17;;;0.68;;
45476;SDS011;31958;51.756;-2.556;2024-03-17T02:39:35;1.88;;;0.70;;
45476;SDS011;31958;51.756;-2.556;2024-03-17T02:42:03;2.03;;;0.80;;
45476;SDS011;31958;51.756;-2.556;2024-03-17T02:44:30;1.13;;;0.63;;
45476;SDS011;31958;51.756;-2.556;2024-03-17T02:46:56;1.48;;;0.70;;
45476;SDS011;31958;51.756;-2.556;2024-03-17T02:49:25;1.10;;;0.50;;
45476;SDS011;31958;51.756;-2.556;2024-03-17T02:52:01;2.10;;;0.68;;
45476;SDS011;31958;51.756;-2.556;2024-03-17T02:54:26;1.48;;;0.80;;
45476;SDS011;31958;51.756;-2.556;2024-03-17T02:56:52;1.65;;;0.70;;
45476;SDS011;31958;51.756;-2.556;2024-03-17T02:59:17;0.90;;;0.60;;
45476;SDS011;31958;51.756;-2.556;2024-03-17T03:01:43;1.40;;;0.57;;
45476;SDS011;31958;51.756;-2.556;2024-03-17T03:04:09;1.23;;;0.60;;
45476;SDS011;31958;51.756;-2.556;2024-03-17T03:06:35;1.27;;;0.70;;
45476;SDS011;31958;51.756;-2.556;2024-03-17T03:09:00;1.15;;;0.60;;
45476;SDS011;31958;51.756;-2.556;2024-03-17T03:11:26;1.13;;;0.60;;
45476;SDS011;31958;51.756;-2.556;2024-03-17T03:13:51;1.38;;;0.70;;
45476;SDS011;31958;51.756;-2.556;2024-03-17T03:16:16;1.48;;;0.50;;
45476;SDS011;31958;51.756;-2.556;2024-03-17T03:18:43;1.15;;;0.60;;
45476;SDS011;31958;51.756;-2.556;2024-03-17T03:21:09;0.40;;;0.40;;
45476;SDS011;31958;51.756;-2.556;2024-03-17T03:23:35;1.02;;;0.52;;
45476;SDS011;31958;51.756;-2.556;2024-03-17T03:26:02;1.20;;;0.60;;
45476;SDS011;31958;51.756;-2.556;2024-03-17T03:28:29;1.60;;;0.77;;
45476;SDS011;31958;51.756;-2.556;2024-03-17T03:30:55;1.38;;;0.70;;
45476;SDS011;31958;51.756;-2.556;2024-03-17T03:33:20;0.90;;;0.50;;
45476;SDS011;31958;51.756;-2.556;2024-03-17T03:35:46;1.40;;;0.65;;
45476;SDS011;31958;51.756;-2.556;2024-03-17T03:38:12;0.90;;;0.50;;
45476;SDS011;31958;51.756;-2.556;2024-03-17T03:40:41;0.82;;;0.52;;
45476;SDS011;31958;51.756;-2.556;2024-03-17T03:43:09;0.88;;;0.50;;
45476;SDS011;31958;51.756;-2.556;2024-03-17T03:45:35;0.93;;;0.60;;
45476;SDS011;31958;51.756;-2.556;2024-03-17T03:48:01;0.88;;;0.45;;
45476;SDS011;31958;51.756;-2.556;2024-03-17T03:50:27;0.43;;;0.43;;
45476;SDS011;31958;51.756;-2.556;2024-03-17T03:52:53;1.20;;;0.50;;
45476;SDS011;31958;51.756;-2.556;2024-03-17T03:55:19;0.68;;;0.50;;
45476;SDS011;31958;51.756;-2.556;2024-03-17T03:57:44;0.90;;;0.47;;
45476;SDS011;31958;51.756;-2.556;2024-03-17T04:00:15;1.63;;;0.60;;
45476;SDS011;31958;51.756;-2.556;2024-03-17T04:02:41;0.68;;;0.40;;
45476;SDS011;31958;51.756;-2.556;2024-03-17T04:05:07;0.98;;;0.60;;
45476;SDS011;31958;51.756;-2.556;2024-03-17T04:07:33;1.02;;;0.50;;
45476;SDS011;31958;51.756;-2.556;2024-03-17T04:09:59;0.98;;;0.50;;
45476;SDS011;31958;51.756;-2.556;2024-03-17T04:12:25;0.57;;;0.38;;
45476;SDS011;31958;51.756;-2.556;2024-03-17T04:14:51;1.17;;;0.45;;
45476;SDS011;31958;51.756;-2.556;2024-03-17T04:17:19;1.42;;;0.57;;
45476;SDS011;31958;51.756;-2.556;2024-03-17T04:19:46;0.95;;;0.50;;
45476;SDS011;31958;51.756;-2.556;2024-03-17T04:22:13;0.88;;;0.32;;
45476;SDS011;31958;51.756;-2.556;2024-03-17T04:24:38;1.23;;;0.63;;
45476;SDS011;31958;51.756;-2.556;2024-03-17T04:27:03;1.38;;;0.50;;
45476;SDS011;31958;51.756;-2.556;2024-03-17T04:29:29;1.23;;;0.57;;
45476;SDS011;31958;51.756;-2.556;2024-03-17T04:31:54;0.63;;;0.60;;
45476;SDS011;31958;51.756;-2.556;2024-03-17T04:34:20;0.90;;;0.57;;
45476;SDS011;31958;51.756;-2.556;2024-03-17T04:36:45;1.02;;;0.68;;
45476;SDS011;31958;51.756;-2.556;2024-03-17T04:39:11;1.60;;;0.70;;
45476;SDS011;31958;51.756;-2.556;2024-03-17T04:41:37;0.45;;;0.40;;
45476;SDS011;31958;51.756;-2.556;2024-03-17T04:44:04;0.70;;;0.50;;
45476;SDS011;31958;51.756;-2.556;2024-03-17T04:46:31;0.57;;;0.40;;
45476;SDS011;31958;51.756;-2.556;2024-03-17T04:48:57;0.47;;;0.40;;
45476;SDS011;31958;51.756;-2.556;2024-03-17T04:51:22;0.50;;;0.40;;
45476;SDS011;31958;51.756;-2.556;2024-03-17T04:53:47;1.02;;;0.73;;
45476;SDS011;31958;51.756;-2.556;2024-03-17T04:56:13;0.65;;;0.40;;
45476;SDS011;31958;51.756;-2.556;2024-03-17T04:58:38;0.90;;;0.50;;
45476;SDS011;31958;51.756;-2.556;2024-03-17T05:01:04;0.75;;;0.50;;
45476;SDS011;31958;51.756;-2.556;2024-03-17T05:03:33;1.17;;;0.50;;
45476;SDS011;31958;51.756;-2.556;2024-03-17T05:06:02;0.93;;;0.50;;
45476;SDS011;31958;51.756;-2.556;2024-03-17T05:08:29;1.65;;;0.50;;
45476;SDS011;31958;51.756;-2.556;2024-03-17T05:11:03;0.47;;;0.45;;
45476;SDS011;31958;51.756;-2.556;2024-03-17T05:13:30;0.80;;;0.50;;
45476;SDS011;31958;51.756;-2.556;2024-03-17T05:15:55;0.55;;;0.38;;
45476;SDS011;31958;51.756;-2.556;2024-03-17T05:18:21;0.68;;;0.50;;
45476;SDS011;31958;51.756;-2.556;2024-03-17T05:20:48;1.08;;;0.50;;
45476;SDS011;31958;51.756;-2.556;2024-03-17T05:23:22;0.82;;;0.50;;
45476;SDS011;31958;51.756;-2.556;2024-03-17T05:25:54;0.93;;;0.60;;
45476;SDS011;31958;51.756;-2.556;2024-03-17T05:28:20;1.00;;;0.50;;
45476;SDS011;31958;51.756;-2.556;2024-03-17T05:30:45;1.65;;;0.40;;
45476;SDS011;31958;51.756;-2.556;2024-03-17T05:33:11;0.52;;;0.40;;
45476;SDS011;31958;51.756;-2.556;2024-03-17T05:35:36;0.88;;;0.52;;
45476;SDS011;31958;51.756;-2.556;2024-03-17T05:38:01;0.60;;;0.45;;
45476;SDS011;31958;51.756;-2.556;2024-03-17T05:40:27;0.63;;;0.50;;
45476;SDS011;31958;51.756;-2.556;2024-03-17T05:42:52;0.70;;;0.47;;
45476;SDS011;31958;51.756;-2.556;2024-03-17T05:45:18;0.70;;;0.50;;
45476;SDS011;31958;51.756;-2.556;2024-03-17T05:47:43;1.20;;;0.60;;
45476;SDS011;31958;51.756;-2.556;2024-03-17T05:50:08;1.00;;;0.45;;
45476;SDS011;31958;51.756;-2.556;2024-03-17T05:52:34;0.80;;;0.50;;
45476;SDS011;31958;51.756;-2.556;2024-03-17T05:54:59;1.08;;;0.60;;
45476;SDS011;31958;51.756;-2.556;2024-03-17T05:57:25;0.90;;;0.57;;
45476;SDS011;31958;51.756;-2.556;2024-03-17T05:59:51;1.65;;;0.57;;
45476;SDS011;31958;51.756;-2.556;2024-03-17T06:02:16;0.63;;;0.40;;
45476;SDS011;31958;51.756;-2.556;2024-03-17T06:04:43;0.70;;;0.50;;
45476;SDS011;31958;51.756;-2.556;2024-03-17T06:07:09;0.80;;;0.50;;
45476;SDS011;31958;51.756;-2.556;2024-03-17T06:09:34;0.75;;;0.47;;
45476;SDS011;31958;51.756;-2.556;2024-03-17T06:12:00;0.50;;;0.40;;
45476;SDS011;31958;51.756;-2.556;2024-03-17T06:14:25;0.77;;;0.45;;
45476;SDS011;31958;51.756;-2.556;2024-03-17T06:16:51;1.38;;;0.55;;
45476;SDS011;31958;51.756;-2.556;2024-03-17T06:19:16;0.60;;;0.50;;
45476;SDS011;31958;51.756;-2.556;2024-03-17T06:21:42;1.30;;;0.55;;
45476;SDS011;31958;51.756;-2.556;2024-03-17T06:24:07;0.57;;;0.40;;
45476;SDS011;31958;51.756;-2.556;2024-03-17T06:26:33;0.88;;;0.60;;
45476;SDS011;31958;51.756;-2.556;2024-03-17T06:29:02;0.70;;;0.52;;
45476;SDS011;31958;51.756;-2.556;2024-03-17T06:31:27;1.35;;;0.60;;
45476;SDS011;31958;51.756;-2.556;2024-03-17T06:33:53;0.70;;;0.45;;
45476;SDS011;31958;51.756;-2.556;2024-03-17T06:36:18;1.00;;;0.50;;
45476;SDS011;31958;51.756;-2.556;2024-03-17T06:38:43;2.08;;;0.50;;
45476;SDS011;31958;51.756;-2.556;2024-03-17T06:41:09;0.80;;;0.50;;
45476;SDS011;31958;51.756;-2.556;2024-03-17T06:43:35;0.65;;;0.50;;
45476;SDS011;31958;51.756;-2.556;2024-03-17T06:46:00;1.73;;;0.60;;
45476;SDS011;31958;51.756;-2.556;2024-03-17T06:48:27;1.85;;;0.52;;
45476;SDS011;31958;51.756;-2.556;2024-03-17T06:50:53;0.60;;;0.40;;
45476;SDS011;31958;51.756;-2.556;2024-03-17T06:53:22;0.40;;;0.40;;
45476;SDS011;31958;51.756;-2.556;2024-03-17T06:55:57;0.70;;;0.43;;
45476;SDS011;31958;51.756;-2.556;2024-03-17T06:58:24;1.40;;;0.65;;
45476;SDS011;31958;51.756;-2.556;2024-03-17T07:03:27;0.77;;;0.50;;
45476;SDS011;31958;51.756;-2.556;2024-03-17T07:05:57;0.63;;;0.45;;
45476;SDS011;31958;51.756;-2.556;2024-03-17T07:08:24;0.93;;;0.57;;
45476;SDS011;31958;51.756;-2.556;2024-03-17T07:10:59;0.40;;;0.40;;
45476;SDS011;31958;51.756;-2.556;2024-03-17T07:13:29;0.68;;;0.50;;
45476;SDS011;31958;51.756;-2.556;2024-03-17T07:15:56;0.98;;;0.50;;
45476;SDS011;31958;51.756;-2.556;2024-03-17T07:18:21;0.55;;;0.43;;
45476;SDS011;31958;51.756;-2.556;2024-03-17T07:20:46;0.57;;;0.40;;
45476;SDS011;31958;51.756;-2.556;2024-03-17T07:23:13;0.70;;;0.50;;
45476;SDS011;31958;51.756;-2.556;2024-03-17T07:25:41;0.47;;;0.45;;
45476;SDS011;31958;51.756;-2.556;2024-03-17T07:28:08;1.17;;;0.63;;
45476;SDS011;31958;51.756;-2.556;2024-03-17T07:30:34;0.50;;;0.43;;
45476;SDS011;31958;51.756;-2.556;2024-03-17T07:33:00;0.63;;;0.40;;
45476;SDS011;31958;51.756;-2.556;2024-03-17T07:35:25;0.60;;;0.50;;
45476;SDS011;31958;51.756;-2.556;2024-03-17T07:37:50;0.30;;;0.30;;
45476;SDS011;31958;51.756;-2.556;2024-03-17T07:40:16;0.40;;;0.40;;
45476;SDS011;31958;51.756;-2.556;2024-03-17T07:42:41;0.40;;;0.40;;
45476;SDS011;31958;51.756;-2.556;2024-03-17T07:45:07;0.70;;;0.43;;
45476;SDS011;31958;51.756;-2.556;2024-03-17T07:47:33;0.43;;;0.38;;
45476;SDS011;31958;51.756;-2.556;2024-03-17T07:50:03;0.70;;;0.40;;
45476;SDS011;31958;51.756;-2.556;2024-03-17T07:52:30;0.65;;;0.40;;
45476;SDS011;31958;51.756;-2.556;2024-03-17T07:54:58;0.85;;;0.40;;
45476;SDS011;31958;51.756;-2.556;2024-03-17T07:57:24;0.30;;;0.30;;
45476;SDS011;31958;51.756;-2.556;2024-03-17T07:59:49;0.80;;;0.50;;
45476;SDS011;31958;51.756;-2.556;2024-03-17T08:02:16;0.40;;;0.40;;
45476;SDS011;31958;51.756;-2.556;2024-03-17T08:04:41;0.57;;;0.50;;
45476;SDS011;31958;51.756;-2.556;2024-03-17T08:07:07;1.08;;;0.40;;
45476;SDS011;31958;51.756;-2.556;2024-03-17T08:09:32;0.82;;;0.50;;
45476;SDS011;31958;51.756;-2.556;2024-03-17T08:11:58;0.30;;;0.30;;
45476;SDS011;31958;51.756;-2.556;2024-03-17T08:14:23;0.40;;;0.40;;
45476;SDS011;31958;51.756;-2.556;2024-03-17T08:16:48;0.73;;;0.50;;
45476;SDS011;31958;51.756;-2.556;2024-03-17T08:19:14;0.65;;;0.40;;
45476;SDS011;31958;51.756;-2.556;2024-03-17T08:21:39;0.22;;;0.22;;
45476;SDS011;31958;51.756;-2.556;2024-03-17T08:24:04;0.98;;;0.50;;
45476;SDS011;31958;51.756;-2.556;2024-03-17T08:26:30;0.28;;;0.28;;
45476;SDS011;31958;51.756;-2.556;2024-03-17T08:28:55;0.40;;;0.40;;
45476;SDS011;31958;51.756;-2.556;2024-03-17T08:31:22;0.28;;;0.28;;
45476;SDS011;31958;51.756;-2.556;2024-03-17T08:33:47;0.30;;;0.30;;
45476;SDS011;31958;51.756;-2.556;2024-03-17T08:36:12;0.52;;;0.40;;
45476;SDS011;31958;51.756;-2.556;2024-03-17T08:38:41;0.35;;;0.30;;
45476;SDS011;31958;51.756;-2.556;2024-03-17T08:41:07;0.88;;;0.40;;
45476;SDS011;31958;51.756;-2.556;2024-03-17T08:43:34;0.57;;;0.40;;
45476;SDS011;31958;51.756;-2.556;2024-03-17T08:46:04;0.30;;;0.30;;
45476;SDS011;31958;51.756;-2.556;2024-03-17T08:48:32;0.43;;;0.40;;
45476;SDS011;31958;51.756;-2.556;2024-03-17T08:50:58;0.45;;;0.35;;
45476;SDS011;31958;51.756;-2.556;2024-03-17T08:53:25;0.60;;;0.40;;
45476;SDS011;31958;51.756;-2.556;2024-03-17T08:55:51;0.40;;;0.40;;
45476;SDS011;31958;51.756;-2.556;2024-03-17T08:58:17;0.38;;;0.30;;
45476;SDS011;31958;51.756;-2.556;2024-03-17T09:00:42;0.38;;;0.30;;
45476;SDS011;31958;51.756;-2.556;2024-03-17T09:03:08;0.30;;;0.30;;
45476;SDS011;31958;51.756;-2.556;2024-03-17T09:05:35;0.47;;;0.40;;
45476;SDS011;31958;51.756;-2.556;2024-03-17T09:08:01;0.77;;;0.40;;
45476;SDS011;31958;51.756;-2.556;2024-03-17T09:10:26;1.40;;;0.47;;
45476;SDS011;31958;51.756;-2.556;2024-03-17T09:12:51;0.63;;;0.20;;
45476;SDS011;31958;51.756;-2.556;2024-03-17T09:15:17;0.60;;;0.30;;
45476;SDS011;31958;51.756;-2.556;2024-03-17T09:17:42;0.30;;;0.30;;
45476;SDS011;31958;51.756;-2.556;2024-03-17T09:20:09;0.30;;;0.30;;
45476;SDS011;31958;51.756;-2.556;2024-03-17T09:22:42;0.20;;;0.20;;
45476;SDS011;31958;51.756;-2.556;2024-03-17T09:25:08;0.20;;;0.20;;
45476;SDS011;31958;51.756;-2.556;2024-03-17T09:27:34;0.30;;;0.30;;
45476;SDS011;31958;51.756;-2.556;2024-03-17T09:30:01;1.02;;;0.40;;
45476;SDS011;31958;51.756;-2.556;2024-03-17T09:32:30;0.52;;;0.30;;
45476;SDS011;31958;51.756;-2.556;2024-03-17T09:34:56;0.28;;;0.28;;
45476;SDS011;31958;51.756;-2.556;2024-03-17T09:37:21;0.43;;;0.30;;
45476;SDS011;31958;51.756;-2.556;2024-03-17T09:39:49;0.20;;;0.20;;
45476;SDS011;31958;51.756;-2.556;2024-03-17T09:42:19;0.65;;;0.40;;
45476;SDS011;31958;51.756;-2.556;2024-03-17T09:44:48;0.55;;;0.30;;
45476;SDS011;31958;51.756;-2.556;2024-03-17T09:47:20;0.22;;;0.22;;
45476;SDS011;31958;51.756;-2.556;2024-03-17T09:49:49;0.45;;;0.32;;
45476;SDS011;31958;51.756;-2.556;2024-03-17T09:52:22;1.00;;;0.50;;
45476;SDS011;31958;51.756;-2.556;2024-03-17T09:54:50;0.40;;;0.40;;
45476;SDS011;31958;51.756;-2.556;2024-03-17T09:57:19;0.60;;;0.40;;
45476;SDS011;31958;51.756;-2.556;2024-03-17T09:59:50;0.30;;;0.30;;
45476;SDS011;31958;51.756;-2.556;2024-03-17T10:02:19;0.40;;;0.30;;
45476;SDS011;31958;51.756;-2.556;2024-03-17T10:04:44;0.30;;;0.30;;
45476;SDS011;31958;51.756;-2.556;2024-03-17T10:07:10;0.47;;;0.47;;
45476;SDS011;31958;51.756;-2.556;2024-03-17T10:09:36;0.30;;;0.30;;
45476;SDS011;31958;51.756;-2.556;2024-03-17T10:12:01;0.73;;;0.32;;
45476;SDS011;31958;51.756;-2.556;2024-03-17T10:14:27;0.20;;;0.20;;
45476;SDS011;31958;51.756;-2.556;2024-03-17T10:16:53;0.35;;;0.30;;
45476;SDS011;31958;51.756;-2.556;2024-03-17T10:19:22;0.40;;;0.30;;
45476;SDS011;31958;51.756;-2.556;2024-03-17T10:21:48;0.50;;;0.40;;
45476;SDS011;31958;51.756;-2.556;2024-03-17T10:24:21;0.25;;;0.25;;
45476;SDS011;31958;51.756;-2.556;2024-03-17T10:29:19;0.30;;;0.30;;
45476;SDS011;31958;51.756;-2.556;2024-03-17T10:31:49;0.65;;;0.40;;
45476;SDS011;31958;51.756;-2.556;2024-03-17T10:34:19;0.30;;;0.30;;
45476;SDS011;31958;51.756;-2.556;2024-03-17T10:36:48;0.60;;;0.40;;
45476;SDS011;31958;51.756;-2.556;2024-03-17T10:39:24;0.20;;;0.20;;
45476;SDS011;31958;51.756;-2.556;2024-03-17T10:41:58;0.20;;;0.20;;
45476;SDS011;31958;51.756;-2.556;2024-03-17T10:44:25;0.30;;;0.30;;
45476;SDS011;31958;51.756;-2.556;2024-03-17T10:46:55;0.35;;;0.32;;
45476;SDS011;31958;51.756;-2.556;2024-03-17T10:49:23;0.30;;;0.30;;
45476;SDS011;31958;51.756;-2.556;2024-03-17T10:51:55;0.35;;;0.30;;
45476;SDS011;31958;51.756;-2.556;2024-03-17T10:54:23;0.30;;;0.30;;
45476;SDS011;31958;51.756;-2.556;2024-03-17T10:56:56;0.30;;;0.30;;
45476;SDS011;31958;51.756;-2.556;2024-03-17T10:59:39;0.50;;;0.40;;
45476;SDS011;31958;51.756;-2.556;2024-03-17T11:02:13;0.15;;;0.15;;
45476;SDS011;31958;51.756;-2.556;2024-03-17T11:04:48;0.35;;;0.30;;
45476;SDS011;31958;51.756;-2.556;2024-03-17T11:07:15;0.35;;;0.35;;
45476;SDS011;31958;51.756;-2.556;2024-03-17T11:09:41;0.30;;;0.30;;
45476;SDS011;31958;51.756;-2.556;2024-03-17T11:12:37;0.30;;;0.30;;
45476;SDS011;31958;51.756;-2.556;2024-03-17T11:20:33;0.32;;;0.30;;
45476;SDS011;31958;51.756;-2.556;2024-03-17T11:23:00;0.35;;;0.35;;
45476;SDS011;31958;51.756;-2.556;2024-03-17T11:27:51;0.30;;;0.30;;
45476;SDS011;31958;51.756;-2.556;2024-03-17T11:38:56;0.30;;;0.30;;
45476;SDS011;31958;51.756;-2.556;2024-03-17T11:47:05;0.30;;;0.30;;
45476;SDS011;31958;51.756;-2.556;2024-03-17T11:49:32;0.45;;;0.35;;
45476;SDS011;31958;51.756;-2.556;2024-03-17T11:52:07;0.25;;;0.25;;
45476;SDS011;31958;51.756;-2.556;2024-03-17T11:54:37;0.40;;;0.30;;
45476;SDS011;31958;51.756;-2.556;2024-03-17T11:57:03;0.28;;;0.28;;
45476;SDS011;31958;51.756;-2.556;2024-03-17T11:59:29;0.28;;;0.20;;
45476;SDS011;31958;51.756;-2.556;2024-03-17T12:01:54;0.35;;;0.30;;
45476;SDS011;31958;51.756;-2.556;2024-03-17T12:04:21;0.40;;;0.30;;
45476;SDS011;31958;51.756;-2.556;2024-03-17T12:06:48;0.43;;;0.30;;
45476;SDS011;31958;51.756;-2.556;2024-03-17T12:11:57;0.43;;;0.40;;
45476;SDS011;31958;51.756;-2.556;2024-03-17T12:14:22;0.30;;;0.30;;
45476;SDS011;31958;51.756;-2.556;2024-03-17T12:16:53;0.20;;;0.20;;
45476;SDS011;31958;51.756;-2.556;2024-03-17T12:19:19;0.30;;;0.28;;
45476;SDS011;31958;51.756;-2.556;2024-03-17T12:21:49;0.40;;;0.30;;
45476;SDS011;31958;51.756;-2.556;2024-03-17T12:24:16;0.45;;;0.35;;
45476;SDS011;31958;51.756;-2.556;2024-03-17T12:26:43;0.30;;;0.30;;
45476;SDS011;31958;51.756;-2.556;2024-03-17T12:31:58;0.47;;;0.30;;
45476;SDS011;31958;51.756;-2.556;2024-03-17T12:34:27;0.47;;;0.28;;
45476;SDS011;31958;51.756;-2.556;2024-03-17T12:36:55;0.93;;;0.43;;
45476;SDS011;31958;51.756;-2.556;2024-03-17T12:39:22;0.28;;;0.28;;
45476;SDS011;31958;51.756;-2.556;2024-03-17T12:44:36;0.35;;;0.30;;
45476;SDS011;31958;51.756;-2.556;2024-03-17T12:47:04;0.65;;;0.40;;
45476;SDS011;31958;51.756;-2.556;2024-03-17T12:49:33;0.65;;;0.35;;
45476;SDS011;31958;51.756;-2.556;2024-03-17T12:51:59;0.47;;;0.32;;
45476;SDS011;31958;51.756;-2.556;2024-03-17T12:54:26;0.57;;;0.30;;
45476;SDS011;31958;51.756;-2.556;2024-03-17T12:57:02;1.77;;;0.50;;
45476;SDS011;31958;51.756;-2.556;2024-03-17T12:59:50;1.15;;;0.43;;
45476;SDS011;31958;51.756;-2.556;2024-03-17T13:02:21;0.98;;;0.50;;
45476;SDS011;31958;51.756;-2.556;2024-03-17T13:05:04;0.75;;;0.40;;
45476;SDS011;31958;51.756;-2.556;2024-03-17T13:07:35;1.40;;;0.55;;
45476;SDS011;31958;51.756;-2.556;2024-03-17T13:10:01;1.40;;;0.57;;
45476;SDS011;31958;51.756;-2.556;2024-03-17T13:12:27;1.75;;;0.60;;
45476;SDS011;31958;51.756;-2.556;2024-03-17T13:14:53;0.85;;;0.50;;
45476;SDS011;31958;51.756;-2.556;2024-03-17T13:17:19;1.05;;;0.52;;
45476;SDS011;31958;51.756;-2.556;2024-03-17T13:19:47;0.93;;;0.40;;
45476;SDS011;31958;51.756;-2.556;2024-03-17T13:22:13;0.95;;;0.52;;
45476;SDS011;31958;51.756;-2.556;2024-03-17T13:24:38;1.00;;;0.50;;
45476;SDS011;31958;51.756;-2.556;2024-03-17T13:27:04;1.88;;;0.60;;
45476;SDS011;31958;51.756;-2.556;2024-03-17T13:29:31;0.50;;;0.40;;
45476;SDS011;31958;51.756;-2.556;2024-03-17T13:32:01;1.38;;;0.40;;
45476;SDS011;31958;51.756;-2.556;2024-03-17T13:34:27;2.17;;;0.80;;
45476;SDS011;31958;51.756;-2.556;2024-03-17T13:36:53;0.70;;;0.43;;
45476;SDS011;31958;51.756;-2.556;2024-03-17T13:39:19;1.52;;;0.70;;
45476;SDS011;31958;51.756;-2.556;2024-03-17T13:41:46;2.28;;;0.73;;
45476;SDS011;31958;51.756;-2.556;2024-03-17T13:44:12;1.08;;;0.60;;
45476;SDS011;31958;51.756;-2.556;2024-03-17T13:46:37;0.73;;;0.40;;
45476;SDS011;31958;51.756;-2.556;2024-03-17T13:49:09;1.20;;;0.52;;
45476;SDS011;31958;51.756;-2.556;2024-03-17T13:51:34;1.48;;;0.50;;
45476;SDS011;31958;51.756;-2.556;2024-03-17T13:54:00;1.75;;;0.52;;
45476;SDS011;31958;51.756;-2.556;2024-03-17T13:56:25;1.10;;;0.45;;
45476;SDS011;31958;51.756;-2.556;2024-03-17T13:58:51;0.73;;;0.40;;
45476;SDS011;31958;51.756;-2.556;2024-03-17T14:01:17;0.70;;;0.40;;
45476;SDS011;31958;51.756;-2.556;2024-03-17T14:03:42;0.45;;;0.40;;
45476;SDS011;31958;51.756;-2.556;2024-03-17T14:06:08;0.93;;;0.50;;
45476;SDS011;31958;51.756;-2.556;2024-03-17T14:08:34;1.15;;;0.55;;
45476;SDS011;31958;51.756;-2.556;2024-03-17T14:11:00;1.55;;;0.60;;
45476;SDS011;31958;51.756;-2.556;2024-03-17T14:13:26;1.05;;;0.50;;
45476;SDS011;31958;51.756;-2.556;2024-03-17T14:15:54;1.85;;;0.50;;
45476;SDS011;31958;51.756;-2.556;2024-03-17T14:18:20;0.73;;;0.40;;
45476;SDS011;31958;51.756;-2.556;2024-03-17T14:20:46;0.95;;;0.52;;
45476;SDS011;31958;51.756;-2.556;2024-03-17T14:23:11;0.90;;;0.50;;
45476;SDS011;31958;51.756;-2.556;2024-03-17T14:25:37;0.65;;;0.40;;
45476;SDS011;31958;51.756;-2.556;2024-03-17T14:28:02;1.02;;;0.60;;
45476;SDS011;31958;51.756;-2.556;2024-03-17T14:30:29;0.77;;;0.47;;
45476;SDS011;31958;51.756;-2.556;2024-03-17T14:32:54;1.05;;;0.50;;
45476;SDS011;31958;51.756;-2.556;2024-03-17T14:35:20;1.45;;;0.80;;
45476;SDS011;31958;51.756;-2.556;2024-03-17T14:37:48;1.95;;;0.50;;
45476;SDS011;31958;51.756;-2.556;2024-03-17T14:40:14;0.50;;;0.50;;
45476;SDS011;31958;51.756;-2.556;2024-03-17T14:42:48;1.77;;;0.55;;
45476;SDS011;31958;51.756;-2.556;2024-03-17T14:45:17;0.85;;;0.50;;
45476;SDS011;31958;51.756;-2.556;2024-03-17T14:47:43;1.23;;;0.52;;
45476;SDS011;31958;51.756;-2.556;2024-03-17T14:50:09;1.35;;;0.60;;
45476;SDS011;31958;51.756;-2.556;2024-03-17T14:52:36;1.30;;;0.50;;
45476;SDS011;31958;51.756;-2.556;2024-03-17T14:55:02;1.88;;;0.70;;
45476;SDS011;31958;51.756;-2.556;2024-03-17T14:57:27;1.13;;;0.60;;
45476;SDS011;31958;51.756;-2.556;2024-03-17T14:59:53;0.90;;;0.60;;
45476;SDS011;31958;51.756;-2.556;2024-03-17T15:02:18;0.77;;;0.50;;
45476;SDS011;31958;51.756;-2.556;2024-03-17T15:04:43;1.27;;;0.60;;
45476;SDS011;31958;51.756;-2.556;2024-03-17T15:07:09;1.63;;;0.70;;